• Join FlightAware (Why Join?)
  • Login
  • US Flag 
08:30AM EST


 

Airport Tracker/Info


-or-


 

Live Flight TrackerFlight Track Log ✈ TMC875 ✈ 26-Apr-2013 ✈ KBOS - KFXE

Flight Track Log - Related Links

Times and Time Zones

All times are in EDT time to prevent confusion due to time zone crossing. See the TMC875 flight status page for this flight to view local times or setup timezone preferences in your user account.

Time Position Orientation Groundspeed Altitude Reporting Facility
EDT Latitude Longitude Course Direction KTS MPH feet Rate Location/Type
06:20PM 42.3667 -70.9667 77° East 179 206 900  Level KA90
06:21PM 42.3833 -70.8667 77° East 219 252 5,500 3,540 Climbing KA90
06:22PM 42.3833 -70.7667 90° East 273 314 9,400 3,420 Climbing KA90
06:23PM 42.3622 -70.7206 122° Southeast 305 351 11,000 2,940 Climbing Boston Center
06:24PM 42.2889 -70.6831 159° South 316 364 13,800 1,680 Climbing Boston Center
06:25PM 42.1986 -70.6436 162° South 317 365 14,400 2,040 Climbing Boston Center
06:26PM 42.1006 -70.6325 175° South 340 391 17,900 3,000 Climbing Boston Center
06:27PM 42.0197 -70.6656 197° South 340 391 20,400 2,460 Climbing Boston Center
06:28PM 41.9267 -70.7100 200° South 340 391 22,900 2,400 Climbing Boston Center
06:29PM 41.8333 -70.7489 197° South 350 403 25,300 2,460 Climbing Boston Center
06:30PM 41.7386 -70.8153 208° Southwest 361 415 27,900 2,100 Climbing Boston Center
06:31PM 41.6603 -70.8842 213° Southwest 361 415 29,500 1,620 Climbing Boston Center
06:32PM 41.5694 -70.9528 209° Southwest 367 422 31,200 1,560 Climbing Boston Center
06:33PM 41.5000 -71.0514 227° Southwest 373 429 32,700 1,260 Climbing Boston Center
06:34PM 41.4303 -71.1583 229° Southwest 373 429 33,800 1,080 Climbing Boston Center
06:35PM 41.3628 -71.2703 231° Southwest 385 443 34,900 1,080 Climbing Boston Center
06:36PM 41.2950 -71.3792 230° Southwest 385 443 36,000 960 Climbing Boston Center
06:37PM 41.2294 -71.4906 232° Southwest 385 443 36,900 840 Climbing Boston Center
06:38PM 41.1553 -71.6075 230° Southwest 390 449 37,700 540 Climbing Boston Center
06:39PM 41.0936 -71.7267 236° Southwest 385 443 38,000 300 Climbing Boston Center
06:40PM 41.0169 -71.8294 225° Southwest 390 449 38,400 360 Climbing Boston Center
06:41PM 40.9467 -71.9289 227° Southwest 402 463 38,800 300 Climbing Boston Center
06:42PM 40.8617 -72.0503 227° Southwest 407 468 39,100 420 Climbing Boston Center
06:43PM 40.7869 -72.1386 222° Southwest 407 468 39,700 420 Climbing Boston Center
06:44PM 40.6831 -72.2267 213° Southwest 414 476 40,000 120 Climbing Boston Center
06:45PM 40.5853 -72.3061 212° Southwest 407 468 40,000  Level Boston Center
06:46PM 40.4894 -72.3911 214° Southwest 418 481 40,000  Level Boston Center
06:47PM 40.3956 -72.4728 214° Southwest 418 481 40,000  Level Boston Center
06:48PM 40.2978 -72.5544 213° Southwest 418 481 40,000  Level Boston Center
06:49PM 40.2183 -72.6194 212° Southwest 418 481 40,000  Level Boston Center
06:50PM 40.1183 -72.7142 216° Southwest 418 481 40,000 -60 Level Boston Center
06:51PM 40.0222 -72.7978 214° Southwest 418 481 39,900  Descending Boston Center
06:52PM 39.9014 -72.9733 228° Southwest 409 471 40,000  Climbing Washington Center
06:53PM 39.8331 -73.0867 232° Southwest 404 465 40,000 -60 Level Washington Center
06:54PM 39.7603 -73.1972 229° Southwest 410 472 39,900  Descending Washington Center
06:55PM 39.6897 -73.3103 231° Southwest 410 472 40,000  Climbing Washington Center
06:56PM 39.6128 -73.4311 230° Southwest 410 472 40,000  Level Washington Center
06:57PM 39.5558 -73.5192 230° Southwest 410 472 40,000 -60 Level Washington Center
06:58PM 39.4069 -73.5850 199° South 439 505 39,900  Descending Washington Center
06:59PM 39.3147 -73.6708 216° Southwest 433 498 40,000  Climbing Washington Center
07:00PM 39.2200 -73.7564 215° Southwest 428 493 39,900  Descending Washington Center
07:01PM 39.1297 -73.8417 216° Southwest 418 481 40,000  Climbing Washington Center
07:02PM 39.0328 -73.9269 214° Southwest 418 481 40,000  Level Washington Center
07:03PM 38.9403 -74.0144 216° Southwest 418 481 40,000  Level Washington Center
07:04PM 38.8475 -74.0992 215° Southwest 418 481 40,000 -60 Level Washington Center
07:05PM 38.7547 -74.1808 214° Southwest 418 481 39,900  Descending Washington Center
07:06PM 38.6597 -74.2678 216° Southwest 418 481 40,000  Climbing Washington Center
07:07PM 38.5711 -74.3489 216° Southwest 418 481 39,900 -60 Descending Washington Center
07:08PM 38.4739 -74.4356 215° Southwest 423 487 39,900  Level Washington Center
07:09PM 38.3808 -74.5189 215° Southwest 423 487 39,900  Level Washington Center
07:10PM 38.2878 -74.6025 215° Southwest 423 487 40,000  Climbing Washington Center
07:11PM 38.1925 -74.6856 214° Southwest 418 481 39,900 -60 Descending Washington Center
07:12PM 38.0972 -74.7633 213° Southwest 418 481 39,900  Level Washington Center
07:13PM 38.0039 -74.8539 217° Southwest 424 488 39,900  Level Washington Center
07:14PM 37.9086 -74.9364 214° Southwest 424 488 40,000  Climbing Washington Center
07:15PM 37.8150 -75.0214 216° Southwest 424 488 40,000  Level Washington Center
07:16PM 37.7175 -75.0983 212° Southwest 419 482 40,000 -60 Level Washington Center
07:17PM 37.6261 -75.1853 217° Southwest 419 482 39,900 -60 Descending Washington Center
07:18PM 37.5303 -75.2644 213° Southwest 419 482 39,900  Level Washington Center
07:19PM 37.4344 -75.3461 214° Southwest 419 482 40,000  Climbing Washington Center
07:20PM 37.3367 -75.4325 215° Southwest 419 482 40,000 -60 Level Washington Center
07:21PM 37.2408 -75.5111 213° Southwest 419 482 39,900  Descending Washington Center
07:22PM 37.1450 -75.5944 215° Southwest 419 482 40,000  Climbing Washington Center
07:23PM 37.0489 -75.6753 214° Southwest 419 482 40,000 -60 Level Washington Center
07:24PM 36.9611 -75.7453 213° Southwest 419 482 39,900  Descending Washington Center
07:25PM 36.8506 -75.8022 202° Southwest 419 482 40,000  Climbing Washington Center
07:26PM 36.7253 -75.8667 202° Southwest 440 506 40,000  Level Washington Center
07:27PM 36.6125 -75.9258 203° Southwest 440 506 40,000  Level Washington Center
07:28PM 36.5183 -75.9822 206° Southwest 434 499 40,000 -60 Level Washington Center
07:29PM 36.4139 -76.0386 203° Southwest 428 493 39,900  Descending Washington Center
07:30PM 36.3053 -76.0947 203° Southwest 423 487 40,000  Climbing Washington Center
07:31PM 36.2006 -76.1506 203° Southwest 423 487 40,000 -60 Level Washington Center
07:32PM 36.0939 -76.2064 203° Southwest 423 487 39,900  Descending Washington Center
07:33PM 35.9894 -76.2594 202° Southwest 423 487 40,000  Climbing Washington Center
07:34PM 35.8847 -76.3150 203° Southwest 423 487 39,900  Descending Washington Center
07:35PM 35.7781 -76.3703 203° Southwest 418 481 40,000  Climbing Washington Center
07:36PM 35.6753 -76.4231 203° Southwest 418 481 39,900 -60 Descending Washington Center
07:37PM 35.5728 -76.4808 205° Southwest 418 481 39,900  Level Washington Center
07:38PM 35.4700 -76.5331 202° Southwest 418 481 39,900  Level Washington Center
07:39PM 35.3528 -76.5931 203° Southwest 413 475 39,900  Level Washington Center
07:40PM 35.2625 -76.6400 203° Southwest 413 475 40,000  Climbing Washington Center
07:41PM 35.1558 -76.6947 203° Southwest 413 475 40,000 -60 Level Washington Center
07:42PM 35.0383 -76.7539 202° Southwest 413 475 39,900 -60 Descending Washington Center
07:43PM 34.9375 -76.8133 206° Southwest 413 475 39,900  Level Washington Center
07:44PM 34.8328 -76.8647 202° Southwest 413 475 40,000  Climbing Washington Center
07:45PM 34.7278 -76.9189 203° Southwest 413 475 39,900  Descending Washington Center
07:46PM 34.6208 -76.9725 202° Southwest 413 475 40,000  Climbing Washington Center
07:47PM 34.5181 -77.0214 201° Southwest 413 475 39,900 -60 Descending Washington Center
07:48PM 34.4131 -77.0747 203° Southwest 413 475 39,900  Level Washington Center
07:49PM 34.3058 -77.1308 203° Southwest 413 475 39,900  Level Washington Center
07:50PM 34.1967 -77.1814 201° Southwest 413 475 40,000  Climbing Washington Center
07:52PM 33.9872 -77.2878 203° Southwest 430 495 39,900 -60 Descending Jacksonville Center
07:53PM 33.8789 -77.3397 202° Southwest 425 489 39,900  Level Jacksonville Center
07:54PM 33.7728 -77.3939 203° Southwest 425 489 40,000  Climbing Jacksonville Center
07:55PM 33.6625 -77.4481 202° Southwest 425 489 39,900  Descending Jacksonville Center
07:56PM 33.5542 -77.4997 202° Southwest 425 489 40,000  Climbing Jacksonville Center
07:57PM 33.4583 -77.5503 204° Southwest 425 489 40,000  Level Jacksonville Center
07:58PM 33.3478 -77.6042 202° Southwest 425 489 40,000  Level Jacksonville Center
07:59PM 33.2375 -77.6553 201° Southwest 425 489 40,000 -60 Level Jacksonville Center
08:00PM 33.1289 -77.7089 202° Southwest 425 489 39,900 -60 Descending Jacksonville Center
08:01PM 33.0206 -77.7622 202° Southwest 425 489 39,900  Level Jacksonville Center
08:02PM 32.9142 -77.8128 202° Southwest 425 489 40,000  Climbing Jacksonville Center
08:03PM 32.8078 -77.8658 203° Southwest 425 489 39,900  Descending Jacksonville Center
08:04PM 32.6972 -77.9189 202° Southwest 425 489 40,000  Climbing Jacksonville Center
08:05PM 32.5864 -77.9692 201° Southwest 425 489 39,900 -60 Descending Jacksonville Center
08:06PM 32.4758 -78.0244 203° Southwest 425 489 39,900  Level Jacksonville Center
08:07PM 32.3653 -78.0794 203° Southwest 425 489 40,000  Climbing Jacksonville Center
08:08PM 32.2567 -78.1319 202° Southwest 425 489 40,000 -60 Level Jacksonville Center
08:09PM 32.1458 -78.1819 201° Southwest 425 489 39,900 -60 Descending Jacksonville Center
08:10PM 32.0250 -78.2469 205° Southwest 425 489 39,900  Level Jacksonville Center
08:11PM 31.9142 -78.2989 202° Southwest 430 495 40,000  Climbing Jacksonville Center
08:12PM 31.8014 -78.3533 202° Southwest 436 502 40,000  Level Jacksonville Center
08:13PM 31.6864 -78.4103 203° Southwest 438 504 40,000 -60 Level Jacksonville Center
08:14PM 31.5817 -78.4569 201° Southwest 426 490 39,900 -60 Descending Jacksonville Center
08:15PM 31.4747 -78.5083 202° Southwest 430 495 39,900  Level Jacksonville Center
08:16PM 31.3619 -78.5597 201° Southwest 430 495 40,000  Climbing Jacksonville Center
08:17PM 31.2528 -78.6086 201° Southwest 425 489 40,000  Level Jacksonville Center
08:18PM 31.1419 -78.6597 202° Southwest 425 489 40,000 -60 Level Jacksonville Center
08:19PM 31.0289 -78.7156 203° Southwest 430 495 39,900  Descending Jacksonville Center
08:20PM 30.9322 -78.7611 202° Southwest 430 495 40,000  Climbing Jacksonville Center
08:22PM 30.7333 -78.8531 202° Southwest 424 488 40,000  Level Miami Center
08:23PM 30.6261 -78.9039 202° Southwest 433 498 40,000  Level Miami Center
08:24PM 30.5131 -78.9547 201° Southwest 434 499 40,000 -60 Level Miami Center
08:25PM 30.3956 -79.0006 199° South 434 499 39,900  Descending Miami Center
08:26PM 30.2783 -79.0317 193° South 434 499 40,000  Climbing Miami Center
08:27PM 30.1592 -79.0628 193° South 434 499 39,900  Descending Miami Center
08:28PM 30.0356 -79.0964 193° South 440 506 40,000  Climbing Miami Center
08:29PM 29.9161 -79.1369 196° South 434 499 40,000  Level Miami Center
08:30PM 29.7989 -79.1678 193° South 434 499 40,000  Level Miami Center
08:31PM 29.6817 -79.1964 192° South 434 499 40,000  Level Miami Center
08:32PM 29.5642 -79.2272 193° South 434 499 40,000  Level Miami Center
08:33PM 29.4492 -79.2511 190° South 423 487 40,000  Level Miami Center
08:34PM 29.3381 -79.2842 195° South 428 493 40,000 -300 Level Miami Center
08:35PM 29.2208 -79.3078 190° South 428 493 39,400 -720 Descending Miami Center
08:36PM 29.1078 -79.3386 193° South 423 487 38,600 -720 Descending Miami Center
08:37PM 29.0086 -79.3933 206° Southwest 400 460 38,000 -300 Descending Miami Center
08:38PM 28.9361 -79.4817 227° Southwest 393 452 38,000  Level Miami Center
08:39PM 28.8656 -79.5725 228° Southwest 388 447 38,000  Level Miami Center
08:40PM 28.7969 -79.6656 230° Southwest 388 447 38,000  Level Miami Center
08:41PM 28.7081 -79.7367 215° Southwest 383 441 38,000  Level Miami Center
08:42PM 28.5908 -79.7525 187° South 383 441 38,000  Level Miami Center
08:43PM 28.4697 -79.7542 181° South 405 466 38,000 -180 Level Miami Center
08:44PM 28.3550 -79.7536 180° South 416 479 37,700 -1,020 Descending Miami Center
08:45PM 28.2339 -79.7575 182° South 426 490 36,000 -1,740 Descending Miami Center
08:46PM 28.1128 -79.7592 181° South 431 496 34,300 -1,680 Descending Miami Center
08:47PM 27.9894 -79.7631 182° South 436 502 32,700 -1,380 Descending Miami Center
08:48PM 27.8664 -79.7647 181° South 448 516 31,600 -1,140 Descending Miami Center
08:49PM 27.7408 -79.7708 182° South 448 516 30,500 -1,380 Descending Miami Center
08:50PM 27.6322 -79.7703 180° South 443 510 28,900 -1,800 Descending Miami Center
08:51PM 27.5153 -79.7744 182° South 438 504 27,000 -2,280 Descending Miami Center
08:52PM 27.3900 -79.7736 180° South 420 483 24,400 -1,500 Descending Miami Center
08:53PM 27.2775 -79.7661 177° South 415 478 24,000 -300 Descending Miami Center
08:54PM 27.1736 -79.7356 165° South 415 478 23,900 -660 Descending Miami Center
08:55PM 27.0678 -79.7050 166° South 410 472 22,700 -1,320 Descending Miami Center
08:56PM 26.9536 -79.6672 164° South 398 458 21,300 -1,800 Descending Miami Center
08:57PM 26.8536 -79.6578 175° South 374 430 19,200 -2,400 Descending Miami Center
08:57PM 26.8075 -79.6658 189° South 336 387 17,900 -2,760 Descending Miami Center
08:58PM 26.7717 -79.6744 192° South 334 384 16,900 -2,940 Descending Miami Center
08:59PM 26.6833 -79.7164 203° Southwest 338 389 13,700 -3,000 Descending Miami Center
09:00PM 26.6011 -79.7564 204° Southwest 330 380 10,800 -2,580 Descending Miami Center
09:01PM 26.5314 -79.7894 203° Southwest 286 329 8,800 -1,500 Descending Miami Center
09:02PM 26.4514 -79.8244 201° Southwest 294 338 8,000 -660 Descending Miami Center
09:03PM 26.3836 -79.8692 211° Southwest 291 335 7,500 -1,200 Descending Miami Center
09:04PM 26.3442 -79.9517 242° Southwest 286 329 5,700 -1,860 Descending Miami Center
09:05PM 26.3069 -80.0389 245° Southwest 278 320 3,500 -1,440 Descending Miami Center
09:06PM 26.2828 -80.0939 244° Southwest 242 278 3,000 -600 Descending Miami Center
09:07PM 26.2606 -80.1533 247° West 197 227 2,500 -540 Descending Miami Center
09:08PM 26.2508 -80.2111 259° West 191 220 2,000 -540 Descending Miami Center
09:09PM 26.2228 -80.2542 234° Southwest 175 201 1,500 -600 Descending Miami Center
09:10PM 26.1917 -80.2372 154° Southeast 130 150 900 -660 Descending Miami Center
09:11PM 26.1947 -80.2000 85° East 117 135 200 -720 Descending Miami Center
09:13PM 26.1833 -80.1667 90° East  Level FlightAware Approximate